sensor_id;sensor_type;location;lat;lon;timestamp;temperature;humidity
66013;DHT22;52783;50.502;8.190;2022-07-29T00:01:33;20.20;40.30
66013;DHT22;52783;50.502;8.190;2022-07-29T00:03:58;20.20;40.20
66013;DHT22;52783;50.502;8.190;2022-07-29T00:06:24;20.20;40.50
66013;DHT22;52783;50.502;8.190;2022-07-29T00:08:49;20.30;40.00
66013;DHT22;52783;50.502;8.190;2022-07-29T00:11:15;20.30;40.10
66013;DHT22;52783;50.502;8.190;2022-07-29T00:13:41;20.20;40.20
66013;DHT22;52783;50.502;8.190;2022-07-29T00:16:06;20.20;40.30
66013;DHT22;52783;50.502;8.190;2022-07-29T00:18:32;20.10;40.00
66013;DHT22;52783;50.502;8.190;2022-07-29T00:20:57;20.00;40.50
66013;DHT22;52783;50.502;8.190;2022-07-29T00:23:23;20.10;41.80
66013;DHT22;52783;50.502;8.190;2022-07-29T00:25:48;20.10;40.30
66013;DHT22;52783;50.502;8.190;2022-07-29T00:28:14;20.10;40.50
66013;DHT22;52783;50.502;8.190;2022-07-29T00:30:39;20.10;40.40
66013;DHT22;52783;50.502;8.190;2022-07-29T00:33:08;20.10;40.90
66013;DHT22;52783;50.502;8.190;2022-07-29T00:35:33;19.70;42.00
66013;DHT22;52783;50.502;8.190;2022-07-29T00:38:13;19.60;42.50
66013;DHT22;52783;50.502;8.190;2022-07-29T00:40:40;19.40;42.80
66013;DHT22;52783;50.502;8.190;2022-07-29T00:43:06;19.30;43.10
66013;DHT22;52783;50.502;8.190;2022-07-29T00:45:31;19.40;44.40
66013;DHT22;52783;50.502;8.190;2022-07-29T00:47:57;19.50;42.60
66013;DHT22;52783;50.502;8.190;2022-07-29T00:50:23;19.50;42.70
66013;DHT22;52783;50.502;8.190;2022-07-29T00:52:48;19.50;42.50
66013;DHT22;52783;50.502;8.190;2022-07-29T00:55:15;19.50;41.90
66013;DHT22;52783;50.502;8.190;2022-07-29T00:57:42;19.60;42.40
66013;DHT22;52783;50.502;8.190;2022-07-29T01:00:10;19.50;43.00
66013;DHT22;52783;50.502;8.190;2022-07-29T01:02:37;19.40;42.80
66013;DHT22;52783;50.502;8.190;2022-07-29T01:05:05;19.40;43.70
66013;DHT22;52783;50.502;8.190;2022-07-29T01:07:35;19.40;44.10
66013;DHT22;52783;50.502;8.190;2022-07-29T01:10:03;19.40;45.10
66013;DHT22;52783;50.502;8.190;2022-07-29T01:12:30;19.30;44.90
66013;DHT22;52783;50.502;8.190;2022-07-29T01:15:00;19.40;44.70
66013;DHT22;52783;50.502;8.190;2022-07-29T01:17:36;19.30;44.90
66013;DHT22;52783;50.502;8.190;2022-07-29T01:20:16;19.30;45.50
66013;DHT22;52783;50.502;8.190;2022-07-29T01:28:57;19.00;48.80
66013;DHT22;52783;50.502;8.190;2022-07-29T01:31:33;18.80;50.80
66013;DHT22;52783;50.502;8.190;2022-07-29T01:34:03;18.50;52.10
66013;DHT22;52783;50.502;8.190;2022-07-29T01:36:43;18.40;54.00
66013;DHT22;52783;50.502;8.190;2022-07-29T01:39:12;18.10;54.20
66013;DHT22;52783;50.502;8.190;2022-07-29T01:41:49;18.00;56.30
66013;DHT22;52783;50.502;8.190;2022-07-29T01:44:22;18.00;55.20
66013;DHT22;52783;50.502;8.190;2022-07-29T01:46:54;18.00;55.60
66013;DHT22;52783;50.502;8.190;2022-07-29T01:49:28;18.00;55.20
66013;DHT22;52783;50.502;8.190;2022-07-29T01:52:15;18.00;55.10
66013;DHT22;52783;50.502;8.190;2022-07-29T01:54:49;17.90;53.60
66013;DHT22;52783;50.502;8.190;2022-07-29T01:57:18;17.90;55.10
66013;DHT22;52783;50.502;8.190;2022-07-29T01:59:46;17.90;55.50
66013;DHT22;52783;50.502;8.190;2022-07-29T02:02:14;18.00;55.60
66013;DHT22;52783;50.502;8.190;2022-07-29T02:04:41;18.00;55.60
66013;DHT22;52783;50.502;8.190;2022-07-29T02:07:12;18.00;55.30
66013;DHT22;52783;50.502;8.190;2022-07-29T02:09:39;18.00;56.10
66013;DHT22;52783;50.502;8.190;2022-07-29T02:12:07;18.00;56.80
66013;DHT22;52783;50.502;8.190;2022-07-29T02:14:37;18.10;57.50
66013;DHT22;52783;50.502;8.190;2022-07-29T02:17:03;18.10;57.50
66013;DHT22;52783;50.502;8.190;2022-07-29T02:19:31;18.10;56.50
66013;DHT22;52783;50.502;8.190;2022-07-29T02:21:58;18.20;56.70
66013;DHT22;52783;50.502;8.190;2022-07-29T02:24:26;18.10;57.50
66013;DHT22;52783;50.502;8.190;2022-07-29T02:30:14;18.10;57.70
66013;DHT22;52783;50.502;8.190;2022-07-29T02:32:40;18.20;57.30
66013;DHT22;52783;50.502;8.190;2022-07-29T02:35:08;18.20;57.40
66013;DHT22;52783;50.502;8.190;2022-07-29T02:37:34;18.20;57.30
66013;DHT22;52783;50.502;8.190;2022-07-29T02:40:01;18.00;57.40
66013;DHT22;52783;50.502;8.190;2022-07-29T02:42:27;18.00;57.00
66013;DHT22;52783;50.502;8.190;2022-07-29T02:44:54;18.10;57.00
66013;DHT22;52783;50.502;8.190;2022-07-29T02:52:57;18.00;56.60
66013;DHT22;52783;50.502;8.190;2022-07-29T02:55:59;17.80;57.20
66013;DHT22;52783;50.502;8.190;2022-07-29T02:58:28;17.80;57.50
66013;DHT22;52783;50.502;8.190;2022-07-29T03:01:02;17.70;57.30
66013;DHT22;52783;50.502;8.190;2022-07-29T03:03:31;17.80;57.40
66013;DHT22;52783;50.502;8.190;2022-07-29T03:05:59;17.90;57.30
66013;DHT22;52783;50.502;8.190;2022-07-29T03:08:26;17.80;56.90
66013;DHT22;52783;50.502;8.190;2022-07-29T03:10:53;17.80;56.80
66013;DHT22;52783;50.502;8.190;2022-07-29T03:13:19;17.80;57.10
66013;DHT22;52783;50.502;8.190;2022-07-29T03:15:45;17.80;57.30
66013;DHT22;52783;50.502;8.190;2022-07-29T03:18:11;17.80;55.60
66013;DHT22;52783;50.502;8.190;2022-07-29T03:20:38;17.80;54.40
66013;DHT22;52783;50.502;8.190;2022-07-29T03:23:04;17.90;53.80
66013;DHT22;52783;50.502;8.190;2022-07-29T03:25:30;17.90;52.90
66013;DHT22;52783;50.502;8.190;2022-07-29T03:27:55;17.90;52.70
66013;DHT22;52783;50.502;8.190;2022-07-29T03:30:22;18.00;52.40
66013;DHT22;52783;50.502;8.190;2022-07-29T03:32:49;17.80;51.80
66013;DHT22;52783;50.502;8.190;2022-07-29T03:35:15;17.90;52.90
66013;DHT22;52783;50.502;8.190;2022-07-29T03:37:44;17.90;53.10
66013;DHT22;52783;50.502;8.190;2022-07-29T03:40:13;17.80;55.10
66013;DHT22;52783;50.502;8.190;2022-07-29T03:42:40;17.70;55.80
66013;DHT22;52783;50.502;8.190;2022-07-29T03:45:10;17.60;55.60
66013;DHT22;52783;50.502;8.190;2022-07-29T03:47:40;17.60;56.00
66013;DHT22;52783;50.502;8.190;2022-07-29T03:50:09;17.60;55.30
66013;DHT22;52783;50.502;8.190;2022-07-29T03:52:35;17.50;54.20
66013;DHT22;52783;50.502;8.190;2022-07-29T03:55:02;17.50;55.50
66013;DHT22;52783;50.502;8.190;2022-07-29T03:57:30;17.60;54.10
66013;DHT22;52783;50.502;8.190;2022-07-29T03:59:56;17.60;53.10
66013;DHT22;52783;50.502;8.190;2022-07-29T04:02:23;17.60;52.60
66013;DHT22;52783;50.502;8.190;2022-07-29T04:04:49;17.50;52.50
66013;DHT22;52783;50.502;8.190;2022-07-29T04:07:15;17.50;52.10
66013;DHT22;52783;50.502;8.190;2022-07-29T04:09:41;17.60;52.20
66013;DHT22;52783;50.502;8.190;2022-07-29T04:12:07;17.60;52.30
66013;DHT22;52783;50.502;8.190;2022-07-29T04:14:33;17.60;52.10
66013;DHT22;52783;50.502;8.190;2022-07-29T04:17:03;17.70;52.00
66013;DHT22;52783;50.502;8.190;2022-07-29T04:19:29;17.70;52.30
66013;DHT22;52783;50.502;8.190;2022-07-29T04:21:55;17.70;52.30
66013;DHT22;52783;50.502;8.190;2022-07-29T04:24:20;17.70;52.10
66013;DHT22;52783;50.502;8.190;2022-07-29T04:26:46;17.60;53.00
66013;DHT22;52783;50.502;8.190;2022-07-29T04:29:12;17.50;52.50
66013;DHT22;52783;50.502;8.190;2022-07-29T04:31:42;17.60;52.30
66013;DHT22;52783;50.502;8.190;2022-07-29T04:34:08;17.60;52.50
66013;DHT22;52783;50.502;8.190;2022-07-29T04:36:34;17.70;52.10
66013;DHT22;52783;50.502;8.190;2022-07-29T04:39:00;17.60;51.50
66013;DHT22;52783;50.502;8.190;2022-07-29T04:41:27;17.70;51.50
66013;DHT22;52783;50.502;8.190;2022-07-29T04:43:52;17.80;51.80
66013;DHT22;52783;50.502;8.190;2022-07-29T04:46:18;17.70;51.20
66013;DHT22;52783;50.502;8.190;2022-07-29T04:48:45;17.80;51.10
66013;DHT22;52783;50.502;8.190;2022-07-29T04:51:11;17.80;51.20
66013;DHT22;52783;50.502;8.190;2022-07-29T04:53:37;17.80;50.80
66013;DHT22;52783;50.502;8.190;2022-07-29T04:56:02;17.90;50.70
66013;DHT22;52783;50.502;8.190;2022-07-29T04:58:28;17.80;51.10
66013;DHT22;52783;50.502;8.190;2022-07-29T05:00:53;17.80;51.10
66013;DHT22;52783;50.502;8.190;2022-07-29T05:03:19;17.70;51.90
66013;DHT22;52783;50.502;8.190;2022-07-29T05:05:44;17.70;52.40
66013;DHT22;52783;50.502;8.190;2022-07-29T05:08:10;17.70;52.40
66013;DHT22;52783;50.502;8.190;2022-07-29T05:10:36;17.90;51.90
66013;DHT22;52783;50.502;8.190;2022-07-29T05:13:04;18.10;50.90
66013;DHT22;52783;50.502;8.190;2022-07-29T05:15:31;18.50;49.50
66013;DHT22;52783;50.502;8.190;2022-07-29T05:17:56;18.80;48.40
66013;DHT22;52783;50.502;8.190;2022-07-29T05:20:22;19.20;47.60
66013;DHT22;52783;50.502;8.190;2022-07-29T05:22:51;19.80;46.90
66013;DHT22;52783;50.502;8.190;2022-07-29T05:25:17;20.20;44.80
66013;DHT22;52783;50.502;8.190;2022-07-29T05:27:43;20.50;42.90
66013;DHT22;52783;50.502;8.190;2022-07-29T05:30:08;20.90;42.90
66013;DHT22;52783;50.502;8.190;2022-07-29T05:32:34;20.80;42.60
66013;DHT22;52783;50.502;8.190;2022-07-29T05:35:00;21.00;41.90
66013;DHT22;52783;50.502;8.190;2022-07-29T05:37:25;21.00;42.10
66013;DHT22;52783;50.502;8.190;2022-07-29T05:39:51;22.00;40.60
66013;DHT22;52783;50.502;8.190;2022-07-29T05:42:16;22.10;39.80
66013;DHT22;52783;50.502;8.190;2022-07-29T05:44:42;22.70;38.40
66013;DHT22;52783;50.502;8.190;2022-07-29T05:47:07;21.70;38.80
66013;DHT22;52783;50.502;8.190;2022-07-29T05:49:33;22.20;38.70
66013;DHT22;52783;50.502;8.190;2022-07-29T05:51:58;22.20;38.60
66013;DHT22;52783;50.502;8.190;2022-07-29T05:54:24;22.40;38.10
66013;DHT22;52783;50.502;8.190;2022-07-29T05:56:50;22.40;38.70
66013;DHT22;52783;50.502;8.190;2022-07-29T05:59:15;22.30;40.30
66013;DHT22;52783;50.502;8.190;2022-07-29T06:01:41;22.20;38.70
66013;DHT22;52783;50.502;8.190;2022-07-29T06:04:06;22.10;39.10
66013;DHT22;52783;50.502;8.190;2022-07-29T06:06:33;21.70;40.40
66013;DHT22;52783;50.502;8.190;2022-07-29T06:08:59;22.20;39.70
66013;DHT22;52783;50.502;8.190;2022-07-29T06:11:25;21.40;41.10
66013;DHT22;52783;50.502;8.190;2022-07-29T06:13:51;21.30;41.90
66013;DHT22;52783;50.502;8.190;2022-07-29T06:16:16;22.10;40.60
66013;DHT22;52783;50.502;8.190;2022-07-29T06:18:42;22.50;39.20
66013;DHT22;52783;50.502;8.190;2022-07-29T06:21:09;22.60;38.80
66013;DHT22;52783;50.502;8.190;2022-07-29T06:23:38;23.40;37.90
66013;DHT22;52783;50.502;8.190;2022-07-29T06:26:04;23.60;35.30
66013;DHT22;52783;50.502;8.190;2022-07-29T06:28:29;24.00;35.40
66013;DHT22;52783;50.502;8.190;2022-07-29T06:30:55;24.10;34.40
66013;DHT22;52783;50.502;8.190;2022-07-29T06:33:20;24.90;34.90
66013;DHT22;52783;50.502;8.190;2022-07-29T06:35:46;24.50;34.60
66013;DHT22;52783;50.502;8.190;2022-07-29T06:38:13;24.50;35.20
66013;DHT22;52783;50.502;8.190;2022-07-29T06:40:45;24.20;35.10
66013;DHT22;52783;50.502;8.190;2022-07-29T06:46:00;22.70;39.40
66013;DHT22;52783;50.502;8.190;2022-07-29T06:48:27;22.30;39.80
66013;DHT22;52783;50.502;8.190;2022-07-29T06:50:52;22.20;41.50
66013;DHT22;52783;50.502;8.190;2022-07-29T06:53:18;22.30;41.20
66013;DHT22;52783;50.502;8.190;2022-07-29T06:55:44;22.20;41.50
66013;DHT22;52783;50.502;8.190;2022-07-29T06:58:09;22.20;42.00
66013;DHT22;52783;50.502;8.190;2022-07-29T07:00:36;22.30;41.20
66013;DHT22;52783;50.502;8.190;2022-07-29T07:03:01;21.90;42.30
66013;DHT22;52783;50.502;8.190;2022-07-29T07:05:27;21.90;43.00
66013;DHT22;52783;50.502;8.190;2022-07-29T07:07:53;22.10;42.40
66013;DHT22;52783;50.502;8.190;2022-07-29T07:10:18;21.90;42.80
66013;DHT22;52783;50.502;8.190;2022-07-29T07:12:44;21.80;43.60
66013;DHT22;52783;50.502;8.190;2022-07-29T07:15:09;21.80;44.20
66013;DHT22;52783;50.502;8.190;2022-07-29T07:17:35;22.70;42.90
66013;DHT22;52783;50.502;8.190;2022-07-29T07:20:00;23.60;40.80
66013;DHT22;52783;50.502;8.190;2022-07-29T07:22:26;24.40;39.10
66013;DHT22;52783;50.502;8.190;2022-07-29T07:24:51;25.00;37.00
66013;DHT22;52783;50.502;8.190;2022-07-29T07:27:17;24.50;36.40
66013;DHT22;52783;50.502;8.190;2022-07-29T07:29:42;24.20;37.60
66013;DHT22;52783;50.502;8.190;2022-07-29T07:32:08;23.60;39.30
66013;DHT22;52783;50.502;8.190;2022-07-29T07:34:34;23.70;39.00
66013;DHT22;52783;50.502;8.190;2022-07-29T07:36:59;24.10;38.10
66013;DHT22;52783;50.502;8.190;2022-07-29T07:39:25;24.60;37.80
66013;DHT22;52783;50.502;8.190;2022-07-29T07:41:51;24.60;37.70
66013;DHT22;52783;50.502;8.190;2022-07-29T07:44:17;24.10;38.40
66013;DHT22;52783;50.502;8.190;2022-07-29T07:46:42;24.10;38.20
66013;DHT22;52783;50.502;8.190;2022-07-29T07:49:10;23.60;38.50
66013;DHT22;52783;50.502;8.190;2022-07-29T07:51:36;23.30;40.50
66013;DHT22;52783;50.502;8.190;2022-07-29T07:54:01;23.80;41.10
66013;DHT22;52783;50.502;8.190;2022-07-29T07:56:27;24.00;40.80
66013;DHT22;52783;50.502;8.190;2022-07-29T07:58:52;24.10;40.00
66013;DHT22;52783;50.502;8.190;2022-07-29T08:01:18;24.20;39.10
66013;DHT22;52783;50.502;8.190;2022-07-29T08:03:45;24.70;38.00
66013;DHT22;52783;50.502;8.190;2022-07-29T08:06:11;24.80;38.80
66013;DHT22;52783;50.502;8.190;2022-07-29T08:08:36;24.60;38.70
66013;DHT22;52783;50.502;8.190;2022-07-29T08:11:02;25.20;38.50
66013;DHT22;52783;50.502;8.190;2022-07-29T08:13:29;25.40;36.70
66013;DHT22;52783;50.502;8.190;2022-07-29T08:15:56;25.80;36.10
66013;DHT22;52783;50.502;8.190;2022-07-29T08:18:30;26.10;36.50
66013;DHT22;52783;50.502;8.190;2022-07-29T08:20:56;26.60;34.00
66013;DHT22;52783;50.502;8.190;2022-07-29T08:23:22;27.00;34.20
66013;DHT22;52783;50.502;8.190;2022-07-29T08:25:49;26.80;33.80
66013;DHT22;52783;50.502;8.190;2022-07-29T08:28:14;26.80;33.60
66013;DHT22;52783;50.502;8.190;2022-07-29T08:30:40;26.80;33.10
66013;DHT22;52783;50.502;8.190;2022-07-29T08:33:06;26.10;34.10
66013;DHT22;52783;50.502;8.190;2022-07-29T08:35:31;26.30;34.60
66013;DHT22;52783;50.502;8.190;2022-07-29T08:37:57;26.80;35.40
66013;DHT22;52783;50.502;8.190;2022-07-29T08:40:23;26.50;33.30
66013;DHT22;52783;50.502;8.190;2022-07-29T08:42:50;25.80;34.10
66013;DHT22;52783;50.502;8.190;2022-07-29T08:45:15;25.80;34.90
66013;DHT22;52783;50.502;8.190;2022-07-29T08:47:45;25.80;35.60
66013;DHT22;52783;50.502;8.190;2022-07-29T08:50:12;26.20;35.20
66013;DHT22;52783;50.502;8.190;2022-07-29T08:52:39;26.00;34.20
66013;DHT22;52783;50.502;8.190;2022-07-29T08:55:06;26.00;34.90
66013;DHT22;52783;50.502;8.190;2022-07-29T08:57:33;25.20;34.70
66013;DHT22;52783;50.502;8.190;2022-07-29T09:00:00;24.80;36.40
66013;DHT22;52783;50.502;8.190;2022-07-29T09:02:28;25.10;36.80
66013;DHT22;52783;50.502;8.190;2022-07-29T09:04:56;24.70;36.10
66013;DHT22;52783;50.502;8.190;2022-07-29T09:07:23;25.20;35.60
66013;DHT22;52783;50.502;8.190;2022-07-29T09:09:49;25.00;36.30
66013;DHT22;52783;50.502;8.190;2022-07-29T09:12:15;25.70;36.00
66013;DHT22;52783;50.502;8.190;2022-07-29T09:14:40;26.10;36.10
66013;DHT22;52783;50.502;8.190;2022-07-29T09:17:06;25.80;36.40
66013;DHT22;52783;50.502;8.190;2022-07-29T09:19:33;26.30;35.80
66013;DHT22;52783;50.502;8.190;2022-07-29T09:22:02;26.00;35.10
66013;DHT22;52783;50.502;8.190;2022-07-29T09:24:42;26.50;35.70
66013;DHT22;52783;50.502;8.190;2022-07-29T09:27:24;26.70;36.50
66013;DHT22;52783;50.502;8.190;2022-07-29T09:30:04;26.80;36.10
66013;DHT22;52783;50.502;8.190;2022-07-29T09:32:31;26.90;34.10
66013;DHT22;52783;50.502;8.190;2022-07-29T09:35:17;27.10;34.80
66013;DHT22;52783;50.502;8.190;2022-07-29T09:37:44;26.80;35.10
66013;DHT22;52783;50.502;8.190;2022-07-29T09:40:18;26.50;35.30
66013;DHT22;52783;50.502;8.190;2022-07-29T09:42:45;25.80;36.00
66013;DHT22;52783;50.502;8.190;2022-07-29T09:45:12;26.50;36.10
66013;DHT22;52783;50.502;8.190;2022-07-29T09:47:41;26.80;34.70
66013;DHT22;52783;50.502;8.190;2022-07-29T09:50:07;27.20;35.00
66013;DHT22;52783;50.502;8.190;2022-07-29T09:52:48;27.40;34.30
66013;DHT22;52783;50.502;8.190;2022-07-29T09:55:15;27.20;34.20
66013;DHT22;52783;50.502;8.190;2022-07-29T09:57:41;26.90;34.10
66013;DHT22;52783;50.502;8.190;2022-07-29T10:00:18;27.10;34.30
66013;DHT22;52783;50.502;8.190;2022-07-29T10:02:46;26.80;34.80
66013;DHT22;52783;50.502;8.190;2022-07-29T10:05:21;26.70;34.30
66013;DHT22;52783;50.502;8.190;2022-07-29T10:07:55;26.70;34.60
66013;DHT22;52783;50.502;8.190;2022-07-29T10:10:31;26.60;33.40
66013;DHT22;52783;50.502;8.190;2022-07-29T10:13:01;27.70;34.00
66013;DHT22;52783;50.502;8.190;2022-07-29T10:15:30;27.40;32.80
66013;DHT22;52783;50.502;8.190;2022-07-29T10:17:56;26.70;33.00
66013;DHT22;52783;50.502;8.190;2022-07-29T10:20:22;26.90;33.40
66013;DHT22;52783;50.502;8.190;2022-07-29T10:22:49;27.00;33.80
66013;DHT22;52783;50.502;8.190;2022-07-29T10:25:16;27.60;33.50
66013;DHT22;52783;50.502;8.190;2022-07-29T10:27:43;26.90;31.30
66013;DHT22;52783;50.502;8.190;2022-07-29T10:30:09;26.80;32.10
66013;DHT22;52783;50.502;8.190;2022-07-29T10:38:44;27.30;32.00
66013;DHT22;52783;50.502;8.190;2022-07-29T10:41:26;26.20;31.90
66013;DHT22;52783;50.502;8.190;2022-07-29T10:44:09;26.60;32.40
66013;DHT22;52783;50.502;8.190;2022-07-29T10:46:38;26.60;33.60
66013;DHT22;52783;50.502;8.190;2022-07-29T10:54:35;26.20;32.80
66013;DHT22;52783;50.502;8.190;2022-07-29T10:57:14;26.70;34.20
66013;DHT22;52783;50.502;8.190;2022-07-29T10:59:41;26.20;32.70
66013;DHT22;52783;50.502;8.190;2022-07-29T11:07:23;26.10;32.30
66013;DHT22;52783;50.502;8.190;2022-07-29T11:15:06;27.30;32.00
66013;DHT22;52783;50.502;8.190;2022-07-29T11:23:03;27.30;32.40
66013;DHT22;52783;50.502;8.190;2022-07-29T11:25:42;27.20;33.50
66013;DHT22;52783;50.502;8.190;2022-07-29T11:28:16;26.80;33.60
66013;DHT22;52783;50.502;8.190;2022-07-29T11:30:51;26.90;33.80
66013;DHT22;52783;50.502;8.190;2022-07-29T11:33:30;27.40;33.70
66013;DHT22;52783;50.502;8.190;2022-07-29T11:36:10;27.40;33.50
66013;DHT22;52783;50.502;8.190;2022-07-29T11:38:37;27.60;33.00
66013;DHT22;52783;50.502;8.190;2022-07-29T11:41:24;27.70;33.00
66013;DHT22;52783;50.502;8.190;2022-07-29T11:46:46;26.70;34.60
66013;DHT22;52783;50.502;8.190;2022-07-29T11:49:12;27.30;34.00
66013;DHT22;52783;50.502;8.190;2022-07-29T11:51:38;27.30;33.70
66013;DHT22;52783;50.502;8.190;2022-07-29T11:54:04;27.20;33.10
66013;DHT22;52783;50.502;8.190;2022-07-29T11:56:34;27.30;33.80
66013;DHT22;52783;50.502;8.190;2022-07-29T11:59:05;26.90;34.90
66013;DHT22;52783;50.502;8.190;2022-07-29T12:01:31;26.90;34.40
66013;DHT22;52783;50.502;8.190;2022-07-29T12:04:07;26.40;34.90
66013;DHT22;52783;50.502;8.190;2022-07-29T12:06:34;26.40;35.30
66013;DHT22;52783;50.502;8.190;2022-07-29T12:09:00;26.30;35.50
66013;DHT22;52783;50.502;8.190;2022-07-29T12:11:26;26.60;35.40
66013;DHT22;52783;50.502;8.190;2022-07-29T12:13:52;26.50;36.90
66013;DHT22;52783;50.502;8.190;2022-07-29T12:16:18;26.40;35.80
66013;DHT22;52783;50.502;8.190;2022-07-29T12:18:58;26.50;36.30
66013;DHT22;52783;50.502;8.190;2022-07-29T12:21:24;26.50;36.60
66013;DHT22;52783;50.502;8.190;2022-07-29T12:23:54;26.60;36.80
66013;DHT22;52783;50.502;8.190;2022-07-29T12:26:20;26.80;36.30
66013;DHT22;52783;50.502;8.190;2022-07-29T12:28:46;27.20;35.80
66013;DHT22;52783;50.502;8.190;2022-07-29T12:31:15;27.20;35.80
66013;DHT22;52783;50.502;8.190;2022-07-29T12:33:41;26.90;35.40
66013;DHT22;52783;50.502;8.190;2022-07-29T12:36:07;26.90;37.00
66013;DHT22;52783;50.502;8.190;2022-07-29T12:38:34;26.80;36.00
66013;DHT22;52783;50.502;8.190;2022-07-29T12:41:00;27.00;36.90
66013;DHT22;52783;50.502;8.190;2022-07-29T12:43:26;27.00;36.50
66013;DHT22;52783;50.502;8.190;2022-07-29T12:45:54;26.50;35.90
66013;DHT22;52783;50.502;8.190;2022-07-29T12:48:36;26.80;35.90
66013;DHT22;52783;50.502;8.190;2022-07-29T12:51:04;27.40;36.60
66013;DHT22;52783;50.502;8.190;2022-07-29T12:53:30;27.00;34.40
66013;DHT22;52783;50.502;8.190;2022-07-29T12:55:56;27.00;34.80
66013;DHT22;52783;50.502;8.190;2022-07-29T12:58:28;27.60;35.20
66013;DHT22;52783;50.502;8.190;2022-07-29T13:01:05;27.70;34.70
66013;DHT22;52783;50.502;8.190;2022-07-29T13:03:52;27.80;34.40
66013;DHT22;52783;50.502;8.190;2022-07-29T13:09:11;27.70;35.20
66013;DHT22;52783;50.502;8.190;2022-07-29T13:14:05;27.90;34.20
66013;DHT22;52783;50.502;8.190;2022-07-29T13:16:31;27.50;34.00
66013;DHT22;52783;50.502;8.190;2022-07-29T13:19:10;27.90;34.10
66013;DHT22;52783;50.502;8.190;2022-07-29T13:21:38;27.80;34.00
66013;DHT22;52783;50.502;8.190;2022-07-29T13:24:05;27.60;33.80
66013;DHT22;52783;50.502;8.190;2022-07-29T13:26:31;27.80;34.00
66013;DHT22;52783;50.502;8.190;2022-07-29T13:28:57;28.20;34.30
66013;DHT22;52783;50.502;8.190;2022-07-29T13:31:22;28.50;33.20
66013;DHT22;52783;50.502;8.190;2022-07-29T13:33:48;28.80;33.10
66013;DHT22;52783;50.502;8.190;2022-07-29T13:36:13;28.80;32.50
66013;DHT22;52783;50.502;8.190;2022-07-29T13:38:39;29.20;32.80
66013;DHT22;52783;50.502;8.190;2022-07-29T13:41:04;29.20;31.80
66013;DHT22;52783;50.502;8.190;2022-07-29T13:43:30;29.40;32.00
66013;DHT22;52783;50.502;8.190;2022-07-29T13:45:56;29.40;31.70
66013;DHT22;52783;50.502;8.190;2022-07-29T13:48:22;29.20;32.60
66013;DHT22;52783;50.502;8.190;2022-07-29T13:50:47;29.00;31.80
66013;DHT22;52783;50.502;8.190;2022-07-29T13:53:13;29.00;32.10
66013;DHT22;52783;50.502;8.190;2022-07-29T13:55:39;28.50;32.10
66013;DHT22;52783;50.502;8.190;2022-07-29T13:58:04;28.60;33.90
66013;DHT22;52783;50.502;8.190;2022-07-29T14:00:30;28.50;33.00
66013;DHT22;52783;50.502;8.190;2022-07-29T14:02:56;28.70;32.70
66013;DHT22;52783;50.502;8.190;2022-07-29T14:05:22;28.80;32.30
66013;DHT22;52783;50.502;8.190;2022-07-29T14:07:47;28.70;32.50
66013;DHT22;52783;50.502;8.190;2022-07-29T14:10:13;28.60;32.70
66013;DHT22;52783;50.502;8.190;2022-07-29T14:12:39;28.60;32.80
66013;DHT22;52783;50.502;8.190;2022-07-29T14:15:07;28.50;32.90
66013;DHT22;52783;50.502;8.190;2022-07-29T14:17:33;28.60;34.30
66013;DHT22;52783;50.502;8.190;2022-07-29T14:19:58;28.60;33.10
66013;DHT22;52783;50.502;8.190;2022-07-29T14:22:24;28.70;33.40
66013;DHT22;52783;50.502;8.190;2022-07-29T14:24:50;28.50;33.80
66013;DHT22;52783;50.502;8.190;2022-07-29T14:27:16;28.50;34.30
66013;DHT22;52783;50.502;8.190;2022-07-29T14:29:41;27.70;37.00
66013;DHT22;52783;50.502;8.190;2022-07-29T14:32:08;27.80;40.20
66013;DHT22;52783;50.502;8.190;2022-07-29T14:34:36;27.60;41.80
66013;DHT22;52783;50.502;8.190;2022-07-29T14:37:02;27.10;41.20
66013;DHT22;52783;50.502;8.190;2022-07-29T14:39:30;26.90;41.70
66013;DHT22;52783;50.502;8.190;2022-07-29T14:41:55;26.90;41.40
66013;DHT22;52783;50.502;8.190;2022-07-29T14:44:21;26.80;41.70
66013;DHT22;52783;50.502;8.190;2022-07-29T14:46:46;26.80;41.50
66013;DHT22;52783;50.502;8.190;2022-07-29T14:49:12;26.90;42.30
66013;DHT22;52783;50.502;8.190;2022-07-29T14:51:37;26.70;41.40
66013;DHT22;52783;50.502;8.190;2022-07-29T14:54:03;26.80;42.10
66013;DHT22;52783;50.502;8.190;2022-07-29T14:56:28;26.70;40.30
66013;DHT22;52783;50.502;8.190;2022-07-29T14:58:56;27.10;40.60
66013;DHT22;52783;50.502;8.190;2022-07-29T15:01:21;27.10;40.40
66013;DHT22;52783;50.502;8.190;2022-07-29T15:03:47;27.30;39.90
66013;DHT22;52783;50.502;8.190;2022-07-29T15:06:12;27.20;40.80
66013;DHT22;52783;50.502;8.190;2022-07-29T15:08:38;27.20;40.10
66013;DHT22;52783;50.502;8.190;2022-07-29T15:11:03;27.20;39.30
66013;DHT22;52783;50.502;8.190;2022-07-29T15:13:29;26.90;43.10
66013;DHT22;52783;50.502;8.190;2022-07-29T15:15:54;26.20;45.70
66013;DHT22;52783;50.502;8.190;2022-07-29T15:18:20;26.10;47.50
66013;DHT22;52783;50.502;8.190;2022-07-29T15:20:46;26.10;47.70
66013;DHT22;52783;50.502;8.190;2022-07-29T15:23:12;25.90;51.00
66013;DHT22;52783;50.502;8.190;2022-07-29T15:25:38;25.80;51.90
66013;DHT22;52783;50.502;8.190;2022-07-29T15:28:04;25.60;54.10
66013;DHT22;52783;50.502;8.190;2022-07-29T15:30:33;25.30;52.30
66013;DHT22;52783;50.502;8.190;2022-07-29T15:32:59;25.20;52.60
66013;DHT22;52783;50.502;8.190;2022-07-29T15:35:25;24.80;52.70
66013;DHT22;52783;50.502;8.190;2022-07-29T15:37:50;24.60;55.00
66013;DHT22;52783;50.502;8.190;2022-07-29T15:40:16;24.30;53.30
66013;DHT22;52783;50.502;8.190;2022-07-29T15:42:41;24.20;54.30
66013;DHT22;52783;50.502;8.190;2022-07-29T15:45:07;24.10;53.50
66013;DHT22;52783;50.502;8.190;2022-07-29T15:47:35;24.40;53.10
66013;DHT22;52783;50.502;8.190;2022-07-29T15:50:00;24.40;52.40
66013;DHT22;52783;50.502;8.190;2022-07-29T15:52:26;24.30;49.40
66013;DHT22;52783;50.502;8.190;2022-07-29T15:54:55;24.70;48.90
66013;DHT22;52783;50.502;8.190;2022-07-29T15:57:22;24.90;48.10
66013;DHT22;52783;50.502;8.190;2022-07-29T15:59:48;25.10;48.00
66013;DHT22;52783;50.502;8.190;2022-07-29T16:02:13;25.60;47.50
66013;DHT22;52783;50.502;8.190;2022-07-29T16:04:39;25.80;45.00
66013;DHT22;52783;50.502;8.190;2022-07-29T16:07:04;26.00;44.30
66013;DHT22;52783;50.502;8.190;2022-07-29T16:09:30;25.70;45.80
66013;DHT22;52783;50.502;8.190;2022-07-29T16:11:56;25.80;44.20
66013;DHT22;52783;50.502;8.190;2022-07-29T16:14:21;26.20;42.10
66013;DHT22;52783;50.502;8.190;2022-07-29T16:16:47;26.40;41.70
66013;DHT22;52783;50.502;8.190;2022-07-29T16:19:13;26.40;41.90
66013;DHT22;52783;50.502;8.190;2022-07-29T16:21:39;26.30;41.70
66013;DHT22;52783;50.502;8.190;2022-07-29T16:24:05;26.30;42.50
66013;DHT22;52783;50.502;8.190;2022-07-29T16:26:31;26.50;43.20